To NAV CANADA Home Page Login to a new session Search on AWWS site Feedback and Comments Disclaimer Vers la page française équivalente Tips FAQ What's new on the site To the Forecasts and Observations / NOTAM section To "File a Flight Plan" website Publications and other links Update of the User's profile FIC Telephone Numbers My Weather Data Folder Route Weather Data Regional Weather Data Local Weather Data To the Forecasts and Observations / NOTAM section
Request Generated 12/04/2016 at 22:23:15 UTC . Weather information available at that time is displayed.

METAR/TAF

ARVIAT/NU    (show WxCam)

SPECI CYEK 042204Z AUTO 13010KT 9SM -SN OVC006 M05/M06 A2985 RMK
SLP110=
METAR CYEK 042200Z AUTO 13009KT 9SM -SN OVC008 M05/M06 A2985 RMK
SLP110=
SPECI CYEK 042150Z AUTO 12010KT 9SM -SN BKN008 OVC011 M05/M06 A2985
RMK SLP110=
METAR CYEK 042100Z 15008KT 15SM OVC008 M05/M06 A2985 RMK ST8
-4.8/-5.0/0.0/LST STFD OBS/NXT 051300Z SLP110=
SPECI CYEK 042032Z 14006KT 15SM OVC008 M05/M06 A2985 RMK ST8 SLP111=
METAR CYEK 042000Z 13010KT 15SM OVC010 M05/M07 A2985 RMK ST8 SLP112=

TAF AMD CYEK 042217Z 0422/0506 13010KT 3SM -SN BR OVC006 TEMPO
0422/0506 P6SM NSW SCT006 BKN012
RMK FCST BASED ON AUTO OBS. NXT FCST BY 050000Z=
Your time UTC time
Weather data provided by Environment Canada and NAV CANADA